Terminal Aerodrome Forecast
Issued by NWS

Home | Current Version | Previous Version | Text Only | Print | Product List | Glossary On
Versions: 1 2 3 4 5 6 7 8 9 10 11 12
000
FTUS42 KTAE 301737
TAFVLD
TAF
KVLD 301737Z 3018/3118 26007G18KT P6SM SCT050 BKN080
      TEMPO 3018/3022 VRB15G25KT 3SM TSRA BKN050CB
     FM310600 00000KT 4SM BR OVC050
     FM310900 00000KT 1SM BR OVC025
     FM311500 22005KT P6SM BKN050=

USA.gov is the U.S. government's official web portal to all federal, state and local government web resources and services.